createdAt,value
2022-10-14T00:00:07.958Z,11.17
2022-10-14T00:02:35.611Z,11.57
2022-10-14T00:05:03.132Z,11.00
2022-10-14T00:07:30.827Z,11.20
2022-10-14T00:09:58.357Z,10.50
2022-10-14T00:12:26.093Z,11.50
2022-10-14T00:14:53.586Z,11.73
2022-10-14T00:17:22.898Z,11.73
2022-10-14T00:19:50.720Z,12.93
2022-10-14T00:22:18.454Z,12.70
2022-10-14T00:24:46.121Z,12.30
2022-10-14T00:27:14.452Z,12.73
2022-10-14T00:29:42.244Z,12.43
2022-10-14T00:32:10.260Z,12.93
2022-10-14T00:34:39.379Z,13.30
2022-10-14T00:37:07.102Z,13.70
2022-10-14T00:39:35.056Z,12.87
2022-10-14T00:42:02.668Z,13.20
2022-10-14T00:45:02.642Z,13.87
2022-10-14T00:47:30.637Z,14.23
2022-10-14T00:50:00.834Z,14.43
2022-10-14T00:52:28.820Z,14.43
2022-10-14T00:54:59.473Z,14.63
2022-10-14T00:57:27.378Z,14.47
2022-10-14T01:00:03.368Z,14.80
2022-10-14T01:02:31.434Z,15.33
2022-10-14T01:05:00.902Z,16.03
2022-10-14T01:07:38.180Z,15.83
2022-10-14T01:10:10.812Z,15.60
2022-10-14T01:12:50.155Z,16.87
2022-10-14T01:15:22.788Z,16.03
2022-10-14T01:17:58.842Z,16.77
2022-10-14T01:20:45.046Z,16.60
2022-10-14T01:23:31.594Z,16.03
2022-10-14T01:26:02.316Z,17.60
2022-10-14T01:28:39.349Z,16.23
2022-10-14T01:31:11.694Z,15.90
2022-10-14T01:33:41.340Z,16.27
2022-10-14T01:36:12.314Z,16.77
2022-10-14T01:38:42.680Z,16.07
2022-10-14T01:41:13.507Z,16.93
2022-10-14T01:43:42.651Z,17.80
2022-10-14T01:46:12.716Z,17.17
2022-10-14T01:48:44.881Z,18.20
2022-10-14T01:51:14.450Z,17.07
2022-10-14T01:53:44.954Z,18.33
2022-10-14T01:56:13.337Z,17.93
2022-10-14T01:58:41.485Z,18.00
2022-10-14T02:01:11.424Z,17.83
2022-10-14T02:03:41.093Z,18.90
2022-10-14T02:06:13.472Z,18.93
2022-10-14T02:08:51.045Z,18.10
2022-10-14T02:11:19.857Z,19.87
2022-10-14T02:14:04.085Z,19.17
2022-10-14T02:16:39.107Z,18.70
2022-10-14T02:19:14.714Z,18.43
2022-10-14T02:21:44.308Z,20.30
2022-10-14T02:24:16.356Z,18.93
2022-10-14T02:26:44.586Z,19.43
2022-10-14T02:29:12.762Z,19.73
2022-10-14T02:31:43.569Z,19.43
2022-10-14T02:34:12.893Z,20.93
2022-10-14T02:36:41.724Z,19.83
2022-10-14T02:39:11.077Z,20.50
2022-10-14T02:41:38.905Z,20.20
2022-10-14T02:44:07.007Z,19.57
2022-10-14T02:46:36.024Z,20.23
2022-10-14T02:49:05.041Z,19.50
2022-10-14T02:51:32.569Z,18.53
2022-10-14T02:54:01.585Z,18.10
2022-10-14T02:56:29.398Z,17.87
2022-10-14T02:58:56.969Z,17.63
2022-10-14T03:01:24.733Z,16.03
2022-10-14T03:03:52.328Z,16.67
2022-10-14T03:06:21.353Z,16.07
2022-10-14T03:08:49.146Z,17.20
2022-10-14T03:11:16.773Z,16.17
2022-10-14T03:13:44.577Z,16.30
2022-10-14T03:16:12.340Z,15.40
2022-10-14T03:18:40.178Z,16.27
2022-10-14T03:21:07.859Z,15.67
2022-10-14T03:23:36.873Z,14.97
2022-10-14T03:26:04.599Z,15.83
2022-10-14T03:28:32.423Z,15.47
2022-10-14T03:31:00.232Z,14.57
2022-10-14T03:33:30.807Z,14.23
2022-10-14T03:36:01.018Z,13.93
2022-10-14T03:38:28.901Z,13.97
2022-10-14T03:40:57.978Z,13.43
2022-10-14T03:43:26.056Z,13.43
2022-10-14T03:45:54.074Z,13.47
2022-10-14T03:48:21.593Z,14.07
2022-10-14T03:50:49.456Z,12.73
2022-10-14T03:53:17.081Z,13.43
2022-10-14T03:55:44.686Z,13.00
2022-10-14T03:58:13.643Z,12.93
2022-10-14T04:00:41.228Z,13.03
2022-10-14T04:03:08.934Z,13.37
2022-10-14T04:05:37.074Z,13.70
2022-10-14T04:08:05.163Z,13.93
2022-10-14T04:10:32.958Z,13.43
2022-10-14T04:13:00.673Z,13.07
2022-10-14T04:15:29.621Z,13.70
2022-10-14T04:17:57.297Z,12.63
2022-10-14T04:20:24.963Z,12.50
2022-10-14T04:22:52.597Z,13.97
2022-10-14T04:25:20.319Z,14.50
2022-10-14T04:27:47.984Z,13.40
2022-10-14T04:30:15.756Z,12.63
2022-10-14T04:32:44.683Z,12.93
2022-10-14T04:35:12.613Z,12.60
2022-10-14T04:37:40.123Z,12.93
2022-10-14T04:40:08.698Z,11.97
2022-10-14T04:42:36.332Z,12.43
2022-10-14T04:45:04.473Z,12.73
2022-10-14T04:47:31.957Z,12.40
2022-10-14T04:50:00.880Z,12.53
2022-10-14T04:52:28.355Z,12.07
2022-10-14T04:54:55.864Z,11.07
2022-10-14T04:57:23.420Z,12.50
2022-10-14T04:59:50.932Z,10.93
2022-10-14T05:02:18.580Z,10.60
2022-10-14T05:04:46.462Z,11.23
2022-10-14T05:07:15.439Z,11.10
2022-10-14T05:09:47.680Z,11.03
2022-10-14T05:12:16.705Z,10.50
2022-10-14T05:14:44.739Z,10.73
2022-10-14T05:17:12.289Z,11.17
2022-10-14T05:19:39.750Z,10.53
2022-10-14T05:22:07.305Z,10.70
2022-10-14T05:24:36.111Z,10.43
2022-10-14T05:27:03.881Z,10.43
2022-10-14T05:29:31.373Z,10.30
2022-10-14T05:31:59.001Z,10.00
2022-10-14T05:34:26.610Z,10.27
2022-10-14T05:36:54.099Z,9.53
2022-10-14T05:39:21.716Z,10.77
2022-10-14T05:41:50.828Z,10.33
2022-10-14T05:44:18.399Z,10.20
2022-10-14T05:46:45.925Z,10.23
2022-10-14T05:49:14.196Z,10.27
2022-10-14T05:51:41.753Z,9.73
2022-10-14T05:54:09.369Z,9.67
2022-10-14T05:56:37.453Z,8.57
2022-10-14T05:59:06.412Z,9.40
2022-10-14T06:01:36.353Z,10.47
2022-10-14T06:04:03.885Z,8.93
2022-10-14T06:06:31.469Z,8.17
2022-10-14T06:08:59.059Z,8.17
2022-10-14T06:11:26.642Z,8.90
2022-10-14T06:13:54.177Z,6.20
2022-10-14T06:16:23.010Z,8.13
2022-10-14T06:18:54.310Z,8.13
2022-10-14T06:21:22.383Z,7.03
2022-10-14T06:23:49.918Z,6.87
2022-10-14T06:26:17.437Z,7.43
2022-10-14T06:28:45.075Z,6.87
2022-10-14T06:31:12.645Z,6.53
2022-10-14T06:33:43.452Z,6.53
2022-10-14T06:36:11.851Z,6.00
2022-10-14T06:38:39.394Z,7.10
2022-10-14T06:41:06.886Z,6.33
2022-10-14T06:43:35.249Z,6.60
2022-10-14T06:46:03.310Z,6.60
2022-10-14T06:48:30.869Z,6.43
2022-10-14T06:51:00.959Z,7.37
2022-10-14T06:53:28.853Z,7.97
2022-10-14T06:56:00.782Z,8.50
2022-10-14T06:58:28.885Z,7.73
2022-10-14T07:03:29.024Z,8.03
2022-10-14T07:05:56.570Z,7.97
2022-10-14T07:08:25.493Z,7.77
2022-10-14T07:10:53.106Z,7.93
2022-10-14T07:13:20.663Z,8.37
2022-10-14T07:15:49.765Z,8.40
2022-10-14T07:18:17.261Z,7.83
2022-10-14T07:20:45.724Z,8.07
2022-10-14T07:23:13.473Z,7.53
2022-10-14T07:25:42.329Z,7.73
2022-10-14T07:28:10.024Z,7.47
2022-10-14T07:30:37.618Z,6.93
2022-10-14T07:33:05.201Z,8.13
2022-10-14T07:35:33.056Z,8.10
2022-10-14T07:38:00.832Z,8.10
2022-10-14T07:40:28.635Z,7.40
2022-10-14T07:42:57.594Z,7.63
2022-10-14T07:45:25.710Z,7.97
2022-10-14T07:47:53.246Z,8.30
2022-10-14T07:50:21.225Z,8.50
2022-10-14T07:52:48.853Z,8.40
2022-10-14T07:55:16.376Z,9.20
2022-10-14T07:57:43.922Z,9.10
2022-10-14T08:00:13.426Z,8.17
2022-10-14T08:02:40.952Z,8.50
2022-10-14T08:05:32.942Z,8.10
2022-10-14T08:07:56.264Z,8.53
2022-10-14T08:10:23.850Z,8.50
2022-10-14T08:12:51.884Z,8.63
2022-10-14T08:15:20.751Z,8.53
2022-10-14T08:17:48.304Z,7.97
2022-10-14T08:20:16.033Z,7.23
2022-10-14T08:22:43.544Z,6.17
2022-10-14T08:25:11.179Z,6.63
2022-10-14T08:27:39.065Z,6.17
2022-10-14T08:30:11.054Z,5.57
2022-10-14T08:32:40.326Z,6.10
2022-10-14T08:35:09.247Z,6.13
2022-10-14T08:37:36.960Z,5.80
2022-10-14T08:40:05.759Z,5.73
2022-10-14T08:42:39.705Z,5.33
2022-10-14T08:45:12.073Z,5.93
2022-10-14T08:47:43.696Z,5.17
2022-10-14T08:50:23.426Z,5.47
2022-10-14T08:52:54.290Z,5.03
2022-10-14T08:55:29.357Z,4.53
2022-10-14T08:57:59.637Z,4.80
2022-10-14T09:00:28.702Z,4.90
2022-10-14T09:02:59.372Z,5.57
2022-10-14T09:05:27.409Z,4.70
2022-10-14T09:07:57.670Z,4.50
2022-10-14T09:10:30.220Z,4.57
2022-10-14T09:13:00.148Z,4.83
2022-10-14T09:15:33.093Z,4.63
2022-10-14T09:18:05.953Z,4.40
2022-10-14T09:20:33.660Z,4.70
2022-10-14T09:23:11.124Z,5.00
2022-10-14T09:25:40.514Z,4.70
2022-10-14T09:28:09.581Z,4.80
2022-10-14T09:30:38.984Z,4.63
2022-10-14T09:33:08.542Z,4.87
2022-10-14T09:35:38.281Z,4.80
2022-10-14T09:38:07.366Z,5.27
2022-10-14T09:40:36.461Z,4.70
2022-10-14T09:43:08.155Z,4.80
2022-10-14T09:45:49.809Z,4.80
2022-10-14T09:48:20.842Z,4.87
2022-10-14T09:50:52.904Z,4.70
2022-10-14T09:53:27.180Z,4.60
2022-10-14T09:55:55.988Z,4.23
2022-10-14T09:58:28.548Z,4.97
2022-10-14T10:00:57.902Z,4.80
2022-10-14T10:03:28.791Z,4.83
2022-10-14T10:06:02.185Z,5.10
2022-10-14T10:08:30.036Z,4.63
2022-10-14T10:11:03.721Z,4.50
2022-10-14T10:13:45.319Z,4.97
2022-10-14T10:16:22.504Z,4.50
2022-10-14T10:18:54.140Z,4.70
2022-10-14T10:21:25.684Z,5.27
2022-10-14T10:23:55.802Z,5.60
2022-10-14T10:26:26.993Z,4.90
2022-10-14T10:28:56.922Z,6.73
2022-10-14T10:31:35.686Z,5.23
2022-10-14T10:34:14.342Z,6.50
2022-10-14T10:36:45.211Z,6.00
2022-10-14T10:39:18.526Z,5.50
2022-10-14T10:41:58.413Z,5.70
2022-10-14T10:44:40.902Z,11.00
2022-10-14T10:47:18.617Z,5.20
2022-10-14T10:50:12.054Z,6.10
2022-10-14T10:52:50.120Z,5.57
2022-10-14T10:55:24.750Z,6.03
2022-10-14T10:58:02.560Z,6.10
2022-10-14T11:00:37.621Z,6.13
2022-10-14T11:03:16.311Z,6.17
2022-10-14T11:05:51.636Z,7.27
2022-10-14T11:08:45.744Z,6.73
2022-10-14T11:11:40.100Z,7.20
2022-10-14T11:14:28.493Z,7.60
2022-10-14T11:17:02.357Z,7.83
2022-10-14T11:19:35.194Z,8.13
2022-10-14T11:22:11.854Z,7.93
2022-10-14T11:24:43.972Z,8.00
2022-10-14T11:27:19.735Z,8.37
2022-10-14T11:30:08.868Z,8.70
2022-10-14T11:32:41.069Z,8.93
2022-10-14T11:35:19.199Z,8.70
2022-10-14T11:38:03.604Z,9.07
2022-10-14T11:40:38.528Z,9.13
2022-10-14T11:43:16.561Z,8.93
2022-10-14T11:45:51.469Z,9.10
2022-10-14T11:48:26.477Z,9.50
2022-10-14T11:50:57.277Z,10.03
2022-10-14T11:56:14.782Z,10.27
2022-10-14T11:58:44.421Z,10.33
2022-10-14T12:01:34.135Z,10.30
2022-10-14T12:04:07.669Z,10.47
2022-10-14T12:06:38.695Z,10.90
2022-10-14T12:09:13.558Z,10.40
2022-10-14T12:11:44.370Z,11.23
2022-10-14T12:14:14.557Z,11.80
2022-10-14T12:16:44.645Z,10.93
2022-10-14T12:19:14.313Z,11.47
2022-10-14T12:21:49.705Z,11.90
2022-10-14T12:24:21.992Z,11.20
2022-10-14T12:26:54.095Z,11.43
2022-10-14T12:29:24.130Z,11.77
2022-10-14T12:32:08.114Z,12.60
2022-10-14T12:34:37.939Z,12.63
2022-10-14T12:37:51.792Z,13.37
2022-10-14T12:40:31.406Z,10.40
2022-10-14T12:43:16.903Z,10.83
2022-10-14T12:45:50.462Z,11.13
2022-10-14T12:48:21.398Z,12.27
2022-10-14T12:50:50.256Z,11.43
2022-10-14T12:53:22.632Z,12.30
2022-10-14T12:55:54.020Z,12.03
2022-10-14T12:58:28.045Z,12.50
2022-10-14T13:00:58.825Z,12.73
2022-10-14T13:03:28.569Z,12.73
2022-10-14T13:06:31.100Z,14.10
2022-10-14T13:09:33.026Z,12.83
2022-10-14T13:12:40.927Z,15.00
2022-10-14T13:15:38.424Z,13.07
2022-10-14T13:18:37.921Z,13.50
2022-10-14T13:21:06.078Z,19.23
2022-10-14T13:23:40.199Z,13.17
2022-10-14T13:26:15.892Z,12.77
2022-10-14T13:28:49.580Z,11.73
2022-10-14T13:31:19.758Z,13.27
2022-10-14T13:33:52.179Z,12.50
2022-10-14T13:36:23.146Z,12.60
2022-10-14T13:38:55.371Z,13.23
2022-10-14T13:41:29.807Z,13.03
2022-10-14T13:44:00.595Z,13.20
2022-10-14T13:46:30.981Z,12.80
2022-10-14T13:49:00.687Z,12.20
2022-10-14T13:51:37.796Z,12.43
2022-10-14T13:54:17.312Z,11.80
2022-10-14T13:56:45.300Z,12.37
2022-10-14T13:59:43.219Z,16.20
2022-10-14T14:02:15.596Z,13.97
2022-10-14T14:04:47.693Z,13.33
2022-10-14T14:07:59.092Z,12.00
2022-10-14T14:10:08.765Z,12.33
2022-10-14T14:12:36.459Z,12.80
2022-10-14T14:15:06.382Z,13.03
2022-10-14T14:17:35.980Z,12.63
2022-10-14T14:20:03.457Z,12.00
2022-10-14T14:22:32.270Z,14.40
2022-10-14T14:25:31.814Z,13.27
2022-10-14T14:28:02.313Z,14.17
2022-10-14T14:30:33.277Z,13.63
2022-10-14T14:33:02.952Z,16.27
2022-10-14T14:35:31.029Z,12.40
2022-10-14T14:37:58.853Z,12.73
2022-10-14T14:40:27.973Z,13.40
2022-10-14T14:42:59.655Z,11.77
2022-10-14T14:45:29.193Z,11.63
2022-10-14T14:48:00.246Z,10.63
2022-10-14T14:50:31.603Z,10.17
2022-10-14T14:53:02.965Z,10.30
2022-10-14T14:55:39.972Z,9.87
2022-10-14T14:58:21.223Z,10.23
2022-10-14T15:00:51.470Z,10.40
2022-10-14T15:03:20.772Z,12.30
2022-10-14T15:05:53.042Z,13.03
2022-10-14T15:08:24.538Z,10.60
2022-10-14T15:10:52.681Z,11.80
2022-10-14T15:13:44.112Z,9.87
2022-10-14T15:16:12.137Z,10.77
2022-10-14T15:18:43.423Z,10.70
2022-10-14T15:21:19.161Z,9.77
2022-10-14T15:24:03.074Z,9.77
2022-10-14T15:26:33.337Z,10.40
2022-10-14T15:29:14.486Z,10.50
2022-10-14T15:31:43.661Z,10.43
2022-10-14T15:34:19.091Z,10.80
2022-10-14T15:36:46.753Z,10.70
2022-10-14T15:39:14.732Z,10.57
2022-10-14T15:41:43.279Z,9.87
2022-10-14T15:44:10.908Z,10.53
2022-10-14T15:46:56.582Z,11.47
2022-10-14T15:49:28.584Z,12.53
2022-10-14T15:51:56.431Z,11.20
2022-10-14T15:54:27.411Z,11.27
2022-10-14T15:59:28.825Z,11.43
2022-10-14T16:01:56.534Z,11.13
2022-10-14T16:04:27.944Z,11.73
2022-10-14T16:06:57.555Z,10.57
2022-10-14T16:09:27.421Z,10.40
2022-10-14T16:11:58.031Z,10.40
2022-10-14T16:14:26.883Z,11.63
2022-10-14T16:16:54.722Z,11.80
2022-10-14T16:19:22.363Z,11.80
2022-10-14T16:21:51.314Z,10.53
2022-10-14T16:24:20.639Z,11.10
2022-10-14T16:26:49.641Z,10.73
2022-10-14T16:29:18.009Z,11.00
2022-10-14T16:31:46.834Z,11.47
2022-10-14T16:34:14.471Z,12.00
2022-10-14T16:36:42.447Z,11.47
2022-10-14T16:39:11.984Z,11.57
2022-10-14T16:41:39.808Z,11.37
2022-10-14T16:44:07.386Z,11.47
2022-10-14T16:46:52.436Z,10.07
2022-10-14T16:49:19.962Z,10.90
2022-10-14T16:51:47.610Z,13.10
2022-10-14T16:54:16.545Z,11.20
2022-10-14T16:56:56.840Z,11.77
2022-10-14T16:59:25.621Z,11.77
2022-10-14T17:01:53.327Z,11.10
2022-10-14T17:04:22.214Z,10.87
2022-10-14T17:06:50.253Z,11.03
2022-10-14T17:09:19.733Z,11.33
2022-10-14T17:11:47.889Z,11.40
2022-10-14T17:14:17.970Z,10.90
2022-10-14T17:16:48.209Z,10.97
2022-10-14T17:19:15.732Z,12.43
2022-10-14T17:21:43.950Z,11.27
2022-10-14T17:24:11.563Z,12.00
2022-10-14T17:26:40.572Z,11.17
2022-10-14T17:29:08.249Z,10.90
2022-10-14T17:31:37.770Z,11.73
2022-10-14T17:34:05.598Z,11.40
2022-10-14T17:36:33.197Z,11.37
2022-10-14T17:39:01.328Z,11.23
2022-10-14T17:41:30.003Z,11.60
2022-10-14T17:44:01.306Z,12.70
2022-10-14T17:46:31.421Z,12.07
2022-10-14T17:49:00.657Z,12.07
2022-10-14T17:51:29.439Z,11.47
2022-10-14T17:53:58.456Z,11.53
2022-10-14T17:56:26.653Z,11.90
2022-10-14T17:58:55.043Z,11.03
2022-10-14T18:01:37.342Z,11.10
2022-10-14T18:04:11.577Z,11.70
2022-10-14T18:06:39.643Z,11.53
2022-10-14T18:09:08.741Z,10.93
2022-10-14T18:12:07.019Z,11.63
2022-10-14T18:14:28.091Z,11.10
2022-10-14T18:16:59.090Z,10.60
2022-10-14T18:19:27.016Z,10.93
2022-10-14T18:21:54.510Z,10.43
2022-10-14T18:24:22.553Z,11.50
2022-10-14T18:26:50.531Z,9.10
2022-10-14T18:29:18.314Z,10.27
2022-10-14T18:31:45.893Z,10.90
2022-10-14T18:34:14.902Z,10.67
2022-10-14T18:36:42.388Z,11.07
2022-10-14T18:51:41.442Z,9.73
2022-10-14T18:54:17.791Z,10.30
2022-10-14T18:56:46.143Z,10.67
2022-10-14T18:59:15.176Z,13.50
2022-10-14T19:01:43.332Z,12.23
2022-10-14T19:04:13.813Z,11.90
2022-10-14T19:06:44.818Z,12.07
2022-10-14T19:09:14.409Z,12.70
2022-10-14T19:11:42.645Z,11.77
2022-10-14T19:14:10.601Z,11.50
2022-10-14T19:16:39.648Z,11.27
2022-10-14T19:19:11.558Z,10.97
2022-10-14T19:21:39.832Z,10.97
2022-10-14T19:24:08.091Z,10.70
2022-10-14T19:26:40.560Z,11.17
2022-10-14T19:29:11.650Z,10.53
2022-10-14T19:31:40.363Z,10.67
2022-10-14T19:34:10.890Z,10.13
2022-10-14T19:36:40.025Z,11.67
2022-10-14T19:39:08.851Z,11.27
2022-10-14T19:41:42.866Z,11.47
2022-10-14T19:44:11.357Z,11.23
2022-10-14T19:46:38.958Z,10.43
2022-10-14T19:49:06.747Z,11.20
2022-10-14T19:51:35.099Z,10.63
2022-10-14T19:54:03.314Z,11.17
2022-10-14T19:56:31.475Z,10.97
2022-10-14T19:59:01.678Z,10.33
2022-10-14T20:01:30.597Z,10.43
2022-10-14T20:04:00.406Z,9.93
2022-10-14T20:06:31.170Z,8.97
2022-10-14T20:08:58.641Z,9.17
2022-10-14T20:11:26.282Z,9.43
2022-10-14T20:13:53.752Z,9.20
2022-10-14T20:16:22.633Z,8.90
2022-10-14T20:18:50.135Z,8.67
2022-10-14T20:21:17.785Z,8.33
2022-10-14T20:23:45.329Z,7.83
2022-10-14T20:26:14.744Z,7.63
2022-10-14T20:28:42.754Z,8.40
2022-10-14T20:31:11.443Z,7.07
2022-10-14T20:33:40.316Z,8.00
2022-10-14T20:36:10.209Z,8.70
2022-10-14T20:38:38.796Z,8.77
2022-10-14T20:41:07.317Z,9.37
2022-10-14T20:43:34.833Z,8.53
2022-10-14T20:46:02.705Z,8.50
2022-10-14T20:48:30.504Z,9.13
2022-10-14T20:50:59.459Z,8.47
2022-10-14T20:53:28.784Z,8.77
2022-10-14T21:20:24.629Z,8.97
2022-10-14T21:22:52.168Z,8.60
2022-10-14T21:25:19.859Z,8.83
2022-10-14T21:27:47.526Z,8.70
2022-10-14T21:30:15.190Z,8.30
2022-10-14T21:32:42.841Z,7.57
2022-10-14T21:35:10.834Z,8.03
2022-10-14T21:37:39.844Z,8.13
2022-10-14T21:40:08.765Z,7.63
2022-10-14T21:42:36.382Z,7.50
2022-10-14T21:45:03.977Z,9.43
2022-10-14T21:47:31.578Z,8.20
2022-10-14T21:49:59.099Z,8.17
2022-10-14T21:52:26.808Z,8.80
2022-10-14T21:54:55.969Z,8.03
2022-10-14T21:57:24.284Z,7.87
2022-10-14T21:59:52.022Z,8.23
2022-10-14T22:02:19.715Z,7.73
2022-10-14T22:04:47.688Z,8.40
2022-10-14T22:07:15.595Z,8.37
2022-10-14T22:09:43.239Z,8.13
2022-10-14T22:12:14.668Z,8.20
2022-10-14T22:14:42.315Z,7.70
2022-10-14T22:17:09.996Z,8.67
2022-10-14T22:19:37.611Z,8.03
2022-10-14T22:22:05.173Z,7.70
2022-10-14T22:24:33.746Z,7.90
2022-10-14T22:27:01.342Z,7.70
2022-10-14T22:29:30.386Z,7.50
2022-10-14T22:31:58.061Z,7.53
2022-10-14T22:34:25.609Z,7.17
2022-10-14T22:36:53.470Z,7.40
2022-10-14T22:39:21.132Z,8.20
2022-10-14T22:41:48.856Z,6.73
2022-10-14T22:44:16.500Z,7.17
2022-10-14T22:46:45.564Z,7.53
2022-10-14T22:49:13.320Z,7.13
2022-10-14T22:51:41.325Z,6.80
2022-10-14T22:54:09.277Z,6.50
2022-10-14T22:56:36.822Z,6.83
2022-10-14T22:59:06.657Z,6.70
2022-10-14T23:01:34.595Z,6.70
2022-10-14T23:04:04.491Z,6.23
2022-10-14T23:06:32.815Z,6.30
2022-10-14T23:09:01.317Z,6.57
2022-10-14T23:11:30.138Z,6.53
2022-10-14T23:14:00.224Z,6.40
2022-10-14T23:16:30.794Z,6.43
2022-10-14T23:18:59.167Z,6.57
2022-10-14T23:21:29.534Z,6.03
2022-10-14T23:23:58.502Z,6.23
2022-10-14T23:26:27.947Z,6.10
2022-10-14T23:28:57.518Z,6.87
2022-10-14T23:31:26.737Z,5.70
2022-10-14T23:33:54.821Z,6.40
2022-10-14T23:36:23.487Z,5.87
2022-10-14T23:38:52.611Z,7.07
2022-10-14T23:41:22.164Z,6.23
2022-10-14T23:43:50.563Z,6.10
2022-10-14T23:46:18.830Z,7.00
2022-10-14T23:48:55.374Z,6.43
2022-10-14T23:51:34.014Z,6.50
2022-10-14T23:54:03.086Z,7.10
2022-10-14T23:56:30.729Z,6.60
2022-10-14T23:58:58.537Z,6.00
